createdAt,value
2019-05-13T00:00:03.844Z,1012.72
2019-05-13T00:01:07.147Z,1012.70
2019-05-13T00:02:04.543Z,1012.73
2019-05-13T00:03:03.750Z,1012.72
2019-05-13T00:04:03.694Z,1012.72
2019-05-13T00:05:24.322Z,1012.75
2019-05-13T00:06:04.138Z,1012.78
2019-05-13T00:07:04.823Z,1012.79
2019-05-13T00:08:03.717Z,1012.78
2019-05-13T00:09:03.566Z,1012.78
2019-05-13T00:10:04.044Z,1012.79
2019-05-13T00:11:24.172Z,1012.79
2019-05-13T00:12:04.665Z,1012.79
2019-05-13T00:13:04.449Z,1012.82
2019-05-13T00:14:04.427Z,1012.86
2019-05-13T00:15:03.709Z,1012.81
2019-05-13T00:16:03.726Z,1012.79
2019-05-13T00:17:24.031Z,1012.83
2019-05-13T00:18:04.004Z,1012.85
2019-05-13T00:19:04.196Z,1012.89
2019-05-13T00:20:03.947Z,1012.91
2019-05-13T00:21:03.691Z,1012.92
2019-05-13T00:22:03.810Z,1012.91
2019-05-13T00:23:23.888Z,1012.88
2019-05-13T00:24:04.123Z,1012.91
2019-05-13T00:25:04.007Z,1012.92
2019-05-13T00:26:03.851Z,1012.97
2019-05-13T00:27:03.876Z,1012.97
2019-05-13T00:28:04.032Z,1012.93
2019-05-13T00:29:23.754Z,1013.02
2019-05-13T00:30:04.295Z,1012.97
2019-05-13T00:31:03.468Z,1012.98
2019-05-13T00:32:04.713Z,1012.92
2019-05-13T00:33:03.874Z,1012.95
2019-05-13T00:34:03.710Z,1012.90
2019-05-13T00:35:23.607Z,1012.88
2019-05-13T00:36:04.066Z,1012.88
2019-05-13T00:37:08.856Z,1012.88
2019-05-13T00:38:03.887Z,1012.89
2019-05-13T00:39:03.944Z,1012.85
2019-05-13T00:40:03.973Z,1012.87
2019-05-13T00:41:24.477Z,1012.84
2019-05-13T00:42:04.027Z,1012.84
2019-05-13T00:43:03.820Z,1012.83
2019-05-13T00:44:03.817Z,1012.85
2019-05-13T00:45:04.001Z,1012.84
2019-05-13T00:46:03.869Z,1012.83
2019-05-13T00:47:23.635Z,1012.89
2019-05-13T00:48:04.664Z,1012.81
2019-05-13T00:49:04.589Z,1012.85
2019-05-13T00:50:03.694Z,1012.86
2019-05-13T00:51:03.714Z,1012.85
2019-05-13T00:52:03.893Z,1012.79
2019-05-13T00:53:23.774Z,1012.79
2019-05-13T00:54:04.141Z,1012.79
2019-05-13T00:55:04.177Z,1012.78
2019-05-13T00:56:04.028Z,1012.81
2019-05-13T00:57:04.054Z,1012.76
2019-05-13T00:58:04.098Z,1012.78
2019-05-13T00:59:24.219Z,1012.77
2019-05-13T01:00:03.558Z,1012.76
2019-05-13T01:01:03.631Z,1012.75
2019-05-13T01:02:03.596Z,1012.77
2019-05-13T01:03:04.109Z,1012.76
2019-05-13T01:04:03.846Z,1012.79
2019-05-13T01:05:23.435Z,1012.80
2019-05-13T01:06:04.045Z,1012.77
2019-05-13T01:07:04.135Z,1012.75
2019-05-13T01:08:03.893Z,1012.79
2019-05-13T01:09:04.034Z,1012.76
2019-05-13T01:10:04.024Z,1012.80
2019-05-13T01:11:23.673Z,1012.81
2019-05-13T01:12:04.096Z,1012.77
2019-05-13T01:13:04.301Z,1012.77
2019-05-13T01:14:04.099Z,1012.79
2019-05-13T01:15:03.933Z,1012.76
2019-05-13T01:16:03.520Z,1012.76
2019-05-13T01:17:23.577Z,1012.76
2019-05-13T01:18:03.690Z,1012.76
2019-05-13T01:19:04.028Z,1012.79
2019-05-13T01:20:03.941Z,1012.76
2019-05-13T01:21:01.485Z,1012.79
2019-05-13T01:22:03.403Z,1012.77
2019-05-13T01:23:24.016Z,1012.73
2019-05-13T01:24:03.768Z,1012.77
2019-05-13T01:25:03.743Z,1012.80
2019-05-13T01:26:03.701Z,1012.80
2019-05-13T01:27:03.568Z,1012.79
2019-05-13T01:28:01.329Z,1012.79
2019-05-13T01:29:23.797Z,1012.81
2019-05-13T01:30:01.263Z,1012.79
2019-05-13T01:31:01.263Z,1012.80
2019-05-13T01:32:01.211Z,1012.84
2019-05-13T01:33:01.192Z,1012.86
2019-05-13T01:34:01.162Z,1012.85
2019-05-13T01:35:23.592Z,1012.88
2019-05-13T01:36:01.110Z,1012.90
2019-05-13T01:37:01.096Z,1012.88
2019-05-13T01:38:01.073Z,1012.87
2019-05-13T01:39:01.044Z,1012.88
2019-05-13T01:40:01.020Z,1012.86
2019-05-13T01:41:23.914Z,1012.90
2019-05-13T01:42:03.478Z,1012.91
2019-05-13T01:43:03.346Z,1012.90
2019-05-13T01:44:03.758Z,1012.88
2019-05-13T01:45:00.898Z,1012.93
2019-05-13T01:46:00.875Z,1012.91
2019-05-13T01:47:24.072Z,1012.92
2019-05-13T01:48:00.824Z,1012.90
2019-05-13T01:49:00.802Z,1012.90
2019-05-13T01:50:00.778Z,1012.93
2019-05-13T01:51:00.753Z,1012.91
2019-05-13T01:52:00.724Z,1012.96
2019-05-13T01:53:24.156Z,1012.94
2019-05-13T01:54:00.680Z,1012.95
2019-05-13T01:55:00.667Z,1012.95
2019-05-13T01:56:00.628Z,1012.99
2019-05-13T01:57:00.602Z,1012.95
2019-05-13T01:58:00.584Z,1012.94
2019-05-13T01:59:23.800Z,1012.92
2019-05-13T02:00:00.532Z,1012.93
2019-05-13T02:01:00.521Z,1012.96
2019-05-13T02:02:00.487Z,1012.96
2019-05-13T02:03:00.455Z,1012.96
2019-05-13T02:04:00.430Z,1012.96
2019-05-13T02:05:21.403Z,1012.97
2019-05-13T02:06:00.387Z,1012.99
2019-05-13T02:07:00.361Z,1013.04
2019-05-13T02:08:00.755Z,1012.98
2019-05-13T02:09:00.312Z,1013.00
2019-05-13T02:10:00.295Z,1013.04
2019-05-13T02:11:23.763Z,1013.00
2019-05-13T02:12:00.262Z,1012.99
2019-05-13T02:13:00.217Z,1013.01
2019-05-13T02:14:00.184Z,1013.00
2019-05-13T02:15:00.171Z,1012.98
2019-05-13T02:16:00.142Z,1012.99
2019-05-13T02:17:23.280Z,1013.01
2019-05-13T02:18:00.088Z,1013.02
2019-05-13T02:19:00.072Z,1013.05
2019-05-13T02:20:00.059Z,1013.01
2019-05-13T02:21:00.027Z,1013.05
2019-05-13T02:21:59.992Z,1012.98
2019-05-13T02:23:20.981Z,1013.04
2019-05-13T02:23:59.937Z,1013.06
2019-05-13T02:24:59.944Z,1013.05
2019-05-13T02:25:59.903Z,1013.06
2019-05-13T02:26:59.870Z,1013.06
2019-05-13T02:27:59.848Z,1013.07
2019-05-13T02:29:20.813Z,1013.09
2019-05-13T02:29:59.793Z,1013.14
2019-05-13T02:30:59.795Z,1013.14
2019-05-13T02:32:02.807Z,1013.15
2019-05-13T02:33:02.804Z,1013.19
2019-05-13T02:34:02.540Z,1013.22
2019-05-13T02:35:23.133Z,1013.21
2019-05-13T02:36:02.629Z,1013.22
2019-05-13T02:37:02.819Z,1013.20
2019-05-13T02:38:17.437Z,1013.21
2019-05-13T02:39:02.253Z,1013.19
2019-05-13T02:40:03.208Z,1013.19
2019-05-13T02:41:22.813Z,1013.20
2019-05-13T02:42:03.007Z,1013.16
2019-05-13T02:43:02.701Z,1013.22
2019-05-13T02:44:03.193Z,1013.21
2019-05-13T02:45:03.090Z,1013.24
2019-05-13T02:45:59.411Z,1013.19
2019-05-13T02:47:22.611Z,1013.18
2019-05-13T02:48:02.393Z,1013.18
2019-05-13T02:48:59.344Z,1013.22
2019-05-13T02:50:01.919Z,1013.16
2019-05-13T02:50:59.280Z,1013.19
2019-05-13T02:52:02.474Z,1013.21
2019-05-13T02:53:23.238Z,1013.19
2019-05-13T02:53:59.207Z,1013.21
2019-05-13T02:54:59.201Z,1013.19
2019-05-13T02:55:59.163Z,1013.23
2019-05-13T02:56:59.135Z,1013.25
2019-05-13T02:57:59.120Z,1013.29
2019-05-13T02:59:22.561Z,1013.25
2019-05-13T02:59:59.061Z,1013.24
2019-05-13T03:00:59.040Z,1013.27
2019-05-13T03:01:59.009Z,1013.28
2019-05-13T03:02:58.997Z,1013.34
2019-05-13T03:03:58.956Z,1013.33
2019-05-13T03:05:22.008Z,1013.30
2019-05-13T03:05:58.916Z,1013.32
2019-05-13T03:06:58.885Z,1013.30
2019-05-13T03:07:58.882Z,1013.25
2019-05-13T03:08:58.884Z,1013.28
2019-05-13T03:09:58.813Z,1013.26
2019-05-13T03:11:22.474Z,1013.32
2019-05-13T03:11:58.765Z,1013.27
2019-05-13T03:12:58.738Z,1013.28
2019-05-13T03:13:58.712Z,1013.22
2019-05-13T03:15:02.423Z,1013.26
2019-05-13T03:15:58.700Z,1013.24
2019-05-13T03:17:22.434Z,1013.25
2019-05-13T03:17:58.617Z,1013.24
2019-05-13T03:18:58.630Z,1013.23
2019-05-13T03:19:58.591Z,1013.24
2019-05-13T03:20:58.543Z,1013.28
2019-05-13T03:21:58.519Z,1013.26
2019-05-13T03:23:22.485Z,1013.30
2019-05-13T03:23:58.490Z,1013.32
2019-05-13T03:24:58.482Z,1013.30
2019-05-13T03:25:58.416Z,1013.29
2019-05-13T03:26:58.393Z,1013.29
2019-05-13T03:27:58.370Z,1013.31
2019-05-13T03:29:22.004Z,1013.30
2019-05-13T03:29:58.318Z,1013.30
2019-05-13T03:30:58.295Z,1013.33
2019-05-13T03:31:58.283Z,1013.33
2019-05-13T03:33:02.184Z,1013.33
2019-05-13T03:33:58.233Z,1013.35
2019-05-13T03:35:25.847Z,1013.32
2019-05-13T03:35:58.206Z,1013.27
2019-05-13T03:36:58.347Z,1013.30
2019-05-13T03:37:58.135Z,1013.31
2019-05-13T03:39:05.836Z,1013.33
2019-05-13T03:39:58.074Z,1013.31
2019-05-13T03:41:22.523Z,1013.33
2019-05-13T03:41:58.021Z,1013.29
2019-05-13T03:42:58.003Z,1013.28
2019-05-13T03:43:57.967Z,1013.27
2019-05-13T03:44:57.961Z,1013.30
2019-05-13T03:45:57.923Z,1013.33
2019-05-13T03:47:18.904Z,1013.28
2019-05-13T03:47:57.881Z,1013.29
2019-05-13T03:48:57.856Z,1013.31
2019-05-13T03:49:57.827Z,1013.32
2019-05-13T03:50:57.801Z,1013.31
2019-05-13T03:51:57.793Z,1013.33
2019-05-13T03:53:18.771Z,1013.35
2019-05-13T03:53:57.730Z,1013.36
2019-05-13T03:54:57.703Z,1013.35
2019-05-13T03:55:57.678Z,1013.36
2019-05-13T03:56:57.666Z,1013.32
2019-05-13T03:57:57.643Z,1013.33
2019-05-13T03:59:18.616Z,1013.33
2019-05-13T03:59:57.582Z,1013.40
2019-05-13T04:00:57.557Z,1013.41
2019-05-13T04:01:57.534Z,1013.41
2019-05-13T04:02:57.502Z,1013.39
2019-05-13T04:03:57.483Z,1013.40
2019-05-13T04:05:18.468Z,1013.40
2019-05-13T04:05:57.437Z,1013.43
2019-05-13T04:06:57.421Z,1013.47
2019-05-13T04:07:57.394Z,1013.49
2019-05-13T04:09:17.245Z,1013.54
2019-05-13T04:09:57.343Z,1013.56
2019-05-13T04:11:18.322Z,1013.62
2019-05-13T04:11:57.285Z,1013.63
2019-05-13T04:12:57.294Z,1013.66
2019-05-13T04:13:57.247Z,1013.73
2019-05-13T04:14:57.206Z,1013.74
2019-05-13T04:15:57.183Z,1013.74
2019-05-13T04:17:18.170Z,1013.75
2019-05-13T04:17:57.139Z,1013.79
2019-05-13T04:18:57.113Z,1013.81
2019-05-13T04:19:57.097Z,1013.83
2019-05-13T04:20:57.070Z,1013.85
2019-05-13T04:21:57.052Z,1013.87
2019-05-13T04:23:18.052Z,1013.92
2019-05-13T04:23:56.995Z,1013.94
2019-05-13T04:24:56.967Z,1013.87
2019-05-13T04:25:56.935Z,1013.85
2019-05-13T04:26:56.928Z,1013.86
2019-05-13T04:27:56.902Z,1013.85
2019-05-13T04:29:17.866Z,1013.85
2019-05-13T04:29:56.852Z,1013.84
2019-05-13T04:30:56.823Z,1013.85
2019-05-13T04:31:56.800Z,1013.84
2019-05-13T04:32:56.770Z,1013.83
2019-05-13T04:33:56.748Z,1013.82
2019-05-13T04:35:17.730Z,1013.84
2019-05-13T04:35:56.698Z,1013.86
2019-05-13T04:36:56.711Z,1013.89
2019-05-13T04:37:56.658Z,1013.89
2019-05-13T04:38:56.623Z,1013.92
2019-05-13T04:39:56.872Z,1013.92
2019-05-13T04:41:17.580Z,1013.93
2019-05-13T04:41:56.551Z,1013.93
2019-05-13T04:42:56.528Z,1013.92
2019-05-13T04:43:56.494Z,1013.91
2019-05-13T04:44:56.473Z,1013.92
2019-05-13T04:45:56.449Z,1013.93
2019-05-13T04:47:17.454Z,1013.97
2019-05-13T04:47:56.413Z,1013.98
2019-05-13T04:48:56.380Z,1014.04
2019-05-13T04:49:56.358Z,1014.02
2019-05-13T04:50:56.323Z,1014.00
2019-05-13T04:51:56.303Z,1014.01
2019-05-13T04:53:17.278Z,1014.03
2019-05-13T04:53:57.457Z,1014.02
2019-05-13T04:54:56.254Z,1014.04
2019-05-13T04:55:56.203Z,1014.03
2019-05-13T04:56:56.214Z,1014.06
2019-05-13T04:57:56.158Z,1014.07
2019-05-13T04:59:17.129Z,1014.04
2019-05-13T04:59:56.104Z,1014.06
2019-05-13T05:01:02.317Z,1014.02
2019-05-13T05:01:59.220Z,1014.03
2019-05-13T05:02:56.041Z,1014.03
2019-05-13T05:03:56.011Z,1014.05
2019-05-13T05:05:17.002Z,1014.09
2019-05-13T05:05:55.987Z,1014.12
2019-05-13T05:06:55.944Z,1014.11
2019-05-13T05:07:55.911Z,1014.12
2019-05-13T05:08:55.909Z,1014.16
2019-05-13T05:10:16.720Z,1014.15
2019-05-13T05:11:16.846Z,1014.17
2019-05-13T05:11:55.819Z,1014.19
2019-05-13T05:12:55.793Z,1014.23
2019-05-13T05:13:56.730Z,1014.21
2019-05-13T05:14:55.757Z,1014.22
2019-05-13T05:15:55.719Z,1014.21
2019-05-13T05:17:16.700Z,1014.24
2019-05-13T05:17:55.674Z,1014.26
2019-05-13T05:18:55.661Z,1014.25
2019-05-13T05:19:55.629Z,1014.23
2019-05-13T05:20:55.600Z,1014.21
2019-05-13T05:21:55.708Z,1014.23
2019-05-13T05:23:16.557Z,1014.25
2019-05-13T05:23:55.526Z,1014.24
2019-05-13T05:24:55.520Z,1014.26
2019-05-13T05:25:55.477Z,1014.25
2019-05-13T05:26:55.462Z,1014.22
2019-05-13T05:27:58.238Z,1014.25
2019-05-13T05:29:16.427Z,1014.21
2019-05-13T05:29:55.383Z,1014.22
2019-05-13T05:30:55.364Z,1014.24
2019-05-13T05:31:55.342Z,1014.24
2019-05-13T05:32:55.386Z,1014.24
2019-05-13T05:33:55.288Z,1014.27
2019-05-13T05:35:16.271Z,1014.28
2019-05-13T05:35:55.247Z,1014.30
2019-05-13T05:36:55.220Z,1014.31
2019-05-13T05:37:55.198Z,1014.29
2019-05-13T05:38:55.182Z,1014.28
2019-05-13T05:39:55.143Z,1014.29
2019-05-13T05:41:16.125Z,1014.29
2019-05-13T05:41:55.105Z,1014.29
2019-05-13T05:42:55.073Z,1014.31
2019-05-13T05:43:55.058Z,1014.30
2019-05-13T05:44:55.035Z,1014.35
2019-05-13T05:45:55.009Z,1014.31
2019-05-13T05:47:15.989Z,1014.35
2019-05-13T05:47:54.965Z,1014.37
2019-05-13T05:48:54.942Z,1014.33
2019-05-13T05:49:54.929Z,1014.38
2019-05-13T05:50:54.888Z,1014.41
2019-05-13T05:51:54.882Z,1014.42
2019-05-13T05:53:15.844Z,1014.44
2019-05-13T05:53:54.827Z,1014.41
2019-05-13T05:54:54.796Z,1014.45
2019-05-13T05:55:54.954Z,1014.48
2019-05-13T05:56:54.755Z,1014.44
2019-05-13T05:57:54.735Z,1014.47
2019-05-13T05:59:15.709Z,1014.47
2019-05-13T05:59:54.681Z,1014.49
2019-05-13T06:00:54.659Z,1014.52
2019-05-13T06:01:54.648Z,1014.48
2019-05-13T06:02:54.614Z,1014.48
2019-05-13T06:03:54.597Z,1014.52
2019-05-13T06:05:15.574Z,1014.53
2019-05-13T06:05:54.548Z,1014.52
2019-05-13T06:06:54.535Z,1014.53
2019-05-13T06:07:54.508Z,1014.51
2019-05-13T06:08:54.477Z,1014.54
2019-05-13T06:09:54.455Z,1014.54
2019-05-13T06:11:15.436Z,1014.51
2019-05-13T06:11:54.442Z,1014.53
2019-05-13T06:12:54.386Z,1014.52
2019-05-13T06:13:54.643Z,1014.52
2019-05-13T06:14:54.347Z,1014.47
2019-05-13T06:15:54.316Z,1014.43
2019-05-13T06:17:15.305Z,1014.44
2019-05-13T06:17:54.283Z,1014.43
2019-05-13T06:18:54.285Z,1014.41
2019-05-13T06:19:54.229Z,1014.42
2019-05-13T06:20:54.207Z,1014.40
2019-05-13T06:21:54.186Z,1014.39
2019-05-13T06:23:15.172Z,1014.42
2019-05-13T06:23:54.143Z,1014.46
2019-05-13T06:24:54.128Z,1014.41
2019-05-13T06:25:54.103Z,1014.43
2019-05-13T06:26:54.080Z,1014.46
2019-05-13T06:27:54.058Z,1014.48
2019-05-13T06:29:15.053Z,1014.43
2019-05-13T06:29:54.031Z,1014.38
2019-05-13T06:30:53.995Z,1014.41
2019-05-13T06:31:53.968Z,1014.41
2019-05-13T06:32:53.950Z,1014.42
2019-05-13T06:33:53.929Z,1014.41
2019-05-13T06:35:14.903Z,1014.43
2019-05-13T06:35:53.878Z,1014.45
2019-05-13T06:36:53.859Z,1014.38
2019-05-13T06:37:53.858Z,1014.38
2019-05-13T06:38:53.817Z,1014.40
2019-05-13T06:39:53.814Z,1014.44
2019-05-13T06:41:15.021Z,1014.42
2019-05-13T06:41:53.752Z,1014.41
2019-05-13T06:42:53.730Z,1014.44
2019-05-13T06:43:53.710Z,1014.49
2019-05-13T06:44:53.684Z,1014.45
2019-05-13T06:45:53.662Z,1014.46
2019-05-13T06:47:14.647Z,1014.47
2019-05-13T06:47:53.646Z,1014.46
2019-05-13T06:48:53.601Z,1014.42
2019-05-13T06:49:53.576Z,1014.43
2019-05-13T06:50:53.556Z,1014.41
2019-05-13T06:51:53.544Z,1014.42
2019-05-13T06:53:14.514Z,1014.43
2019-05-13T06:53:53.495Z,1014.43
2019-05-13T06:54:53.492Z,1014.52
2019-05-13T06:55:53.454Z,1014.44
2019-05-13T06:56:53.432Z,1014.44
2019-05-13T06:57:53.412Z,1014.45
2019-05-13T06:59:14.389Z,1014.46
2019-05-13T06:59:53.367Z,1014.45
2019-05-13T07:00:57.673Z,1014.41
2019-05-13T07:01:53.326Z,1014.43
2019-05-13T07:02:53.319Z,1014.46
2019-05-13T07:03:53.284Z,1014.44
2019-05-13T07:05:14.264Z,1014.44
2019-05-13T07:05:53.247Z,1014.43
2019-05-13T07:07:08.862Z,1014.48
2019-05-13T07:07:53.217Z,1014.44
2019-05-13T07:08:53.191Z,1014.45
2019-05-13T07:09:53.166Z,1014.42
2019-05-13T07:11:21.036Z,1014.43
2019-05-13T07:11:56.657Z,1014.45
2019-05-13T07:12:53.110Z,1014.51
2019-05-13T07:13:53.086Z,1014.50
2019-05-13T07:14:53.101Z,1014.49
2019-05-13T07:15:53.069Z,1014.52
2019-05-13T07:17:14.126Z,1014.49
2019-05-13T07:17:53.013Z,1014.53
2019-05-13T07:18:52.991Z,1014.52
2019-05-13T07:19:52.965Z,1014.46
2019-05-13T07:20:53.201Z,1014.49
2019-05-13T07:21:52.927Z,1014.44
2019-05-13T07:23:13.940Z,1014.46
2019-05-13T07:23:54.930Z,1014.46
2019-05-13T07:24:52.875Z,1014.44
2019-05-13T07:25:52.867Z,1014.50
2019-05-13T07:26:52.831Z,1014.48
2019-05-13T07:27:52.826Z,1014.53
2019-05-13T07:29:14.320Z,1014.55
2019-05-13T07:29:55.485Z,1014.51
2019-05-13T07:30:52.777Z,1014.54
2019-05-13T07:31:52.743Z,1014.50
2019-05-13T07:32:52.722Z,1014.49
2019-05-13T07:33:52.700Z,1014.51
2019-05-13T07:35:14.691Z,1014.50
2019-05-13T07:35:58.283Z,1014.53
2019-05-13T07:36:52.646Z,1014.48
2019-05-13T07:37:52.636Z,1014.53
2019-05-13T07:38:52.614Z,1014.50
2019-05-13T07:39:53.139Z,1014.46
2019-05-13T07:41:13.584Z,1014.44
2019-05-13T07:41:52.563Z,1014.47
2019-05-13T07:42:52.546Z,1014.46
2019-05-13T07:43:52.522Z,1014.49
2019-05-13T07:44:52.511Z,1014.48
2019-05-13T07:45:52.495Z,1014.48
2019-05-13T07:47:15.836Z,1014.49
2019-05-13T07:47:52.454Z,1014.48
2019-05-13T07:48:52.441Z,1014.45
2019-05-13T07:49:52.457Z,1014.47
2019-05-13T07:50:59.912Z,1014.44
2019-05-13T07:51:52.385Z,1014.50
2019-05-13T07:53:18.653Z,1014.47
2019-05-13T07:53:52.355Z,1014.47
2019-05-13T07:54:52.339Z,1014.45
2019-05-13T07:55:52.582Z,1014.47
2019-05-13T07:56:52.521Z,1014.49
2019-05-13T07:57:52.279Z,1014.47
2019-05-13T07:59:13.284Z,1014.47
2019-05-13T07:59:52.528Z,1014.51
2019-05-13T08:00:52.404Z,1014.50
2019-05-13T08:01:52.364Z,1014.49
2019-05-13T08:02:52.416Z,1014.51
2019-05-13T08:03:52.190Z,1014.52
2019-05-13T08:05:13.174Z,1014.50
2019-05-13T08:05:52.149Z,1014.47
2019-05-13T08:06:52.530Z,1014.47
2019-05-13T08:07:52.123Z,1014.49
2019-05-13T08:08:52.427Z,1014.52
2019-05-13T08:09:55.660Z,1014.51
2019-05-13T08:11:13.079Z,1014.55
2019-05-13T08:12:04.731Z,1014.54
2019-05-13T08:12:52.036Z,1014.54
2019-05-13T08:13:52.024Z,1014.49
2019-05-13T08:14:52.318Z,1014.49
2019-05-13T08:15:54.543Z,1014.49
2019-05-13T08:17:13.064Z,1014.51
2019-05-13T08:17:52.578Z,1014.54
2019-05-13T08:18:52.421Z,1014.50
2019-05-13T08:19:52.216Z,1014.49
2019-05-13T08:20:52.550Z,1014.50
2019-05-13T08:21:51.904Z,1014.52
2019-05-13T08:23:12.908Z,1014.51
2019-05-13T08:23:52.655Z,1014.54
2019-05-13T08:24:54.123Z,1014.50
2019-05-13T08:25:51.846Z,1014.47
2019-05-13T08:26:53.161Z,1014.51
2019-05-13T08:27:51.832Z,1014.46
2019-05-13T08:29:12.810Z,1014.47
2019-05-13T08:29:52.164Z,1014.46
2019-05-13T08:30:51.986Z,1014.50
2019-05-13T08:31:51.965Z,1014.47
2019-05-13T08:32:52.345Z,1014.47
2019-05-13T08:33:52.029Z,1014.48
2019-05-13T08:35:12.756Z,1014.49
2019-05-13T08:35:54.019Z,1014.50
2019-05-13T08:36:51.717Z,1014.49
2019-05-13T08:37:52.145Z,1014.49
2019-05-13T08:38:52.023Z,1014.42
2019-05-13T08:39:52.303Z,1014.43
2019-05-13T08:41:18.978Z,1014.44
2019-05-13T08:41:51.685Z,1014.43
2019-05-13T08:42:52.113Z,1014.45
2019-05-13T08:43:52.376Z,1014.39
2019-05-13T08:44:52.438Z,1014.38
2019-05-13T08:45:55.108Z,1014.37
2019-05-13T08:47:12.569Z,1014.40
2019-05-13T08:47:51.551Z,1014.40
2019-05-13T08:48:51.912Z,1014.43
2019-05-13T08:49:52.172Z,1014.43
2019-05-13T08:50:52.191Z,1014.40
2019-05-13T08:51:52.728Z,1014.43
2019-05-13T08:53:12.514Z,1014.44
2019-05-13T08:53:51.729Z,1014.43
2019-05-13T08:54:52.440Z,1014.39
2019-05-13T08:55:51.838Z,1014.41
2019-05-13T08:56:52.025Z,1014.43
2019-05-13T08:57:54.919Z,1014.44
2019-05-13T08:59:12.415Z,1014.43
2019-05-13T08:59:51.720Z,1014.41
2019-05-13T09:00:52.953Z,1014.38
2019-05-13T09:01:52.086Z,1014.43
2019-05-13T09:02:52.206Z,1014.41
2019-05-13T09:03:52.131Z,1014.38
2019-05-13T09:05:12.321Z,1014.36
2019-05-13T09:05:52.207Z,1014.41
2019-05-13T09:06:52.378Z,1014.36
2019-05-13T09:07:51.806Z,1014.40
2019-05-13T09:08:53.740Z,1014.42
2019-05-13T09:09:51.359Z,1014.36
2019-05-13T09:11:12.247Z,1014.38
2019-05-13T09:11:51.671Z,1014.38
2019-05-13T09:12:52.209Z,1014.41
2019-05-13T09:13:51.677Z,1014.37
2019-05-13T09:14:52.362Z,1014.30
2019-05-13T09:15:51.765Z,1014.33
2019-05-13T09:17:12.270Z,1014.32
2019-05-13T09:17:51.691Z,1014.30
2019-05-13T09:18:52.039Z,1014.35
2019-05-13T09:19:51.971Z,1014.36
2019-05-13T09:20:52.132Z,1014.32
2019-05-13T09:21:52.577Z,1014.34
2019-05-13T09:23:12.086Z,1014.32
2019-05-13T09:23:51.601Z,1014.32
2019-05-13T09:24:53.021Z,1014.29
2019-05-13T09:25:52.111Z,1014.32
2019-05-13T09:26:52.722Z,1014.34
2019-05-13T09:27:51.409Z,1014.32
2019-05-13T09:29:12.121Z,1014.28
2019-05-13T09:29:51.840Z,1014.25
2019-05-13T09:30:53.027Z,1014.24
2019-05-13T09:31:52.008Z,1014.20
2019-05-13T09:32:51.446Z,1014.21
2019-05-13T09:33:52.102Z,1014.23
2019-05-13T09:35:12.181Z,1014.24
2019-05-13T09:35:53.374Z,1014.17
2019-05-13T09:36:51.938Z,1014.22
2019-05-13T09:37:51.619Z,1014.18
2019-05-13T09:38:52.581Z,1014.16
2019-05-13T09:39:51.649Z,1014.17
2019-05-13T09:41:12.453Z,1014.15
2019-05-13T09:41:52.059Z,1014.13
2019-05-13T09:43:51.487Z,1014.18
2019-05-13T09:44:52.493Z,1014.21
2019-05-13T09:45:52.305Z,1014.14
2019-05-13T09:47:12.400Z,1014.22
2019-05-13T09:47:52.531Z,1014.21
2019-05-13T09:48:51.647Z,1014.23
2019-05-13T09:49:50.721Z,1014.20
2019-05-13T09:50:51.663Z,1014.10
2019-05-13T09:51:52.261Z,1014.11
2019-05-13T09:53:11.762Z,1014.09
2019-05-13T09:53:51.995Z,1014.13
2019-05-13T09:54:52.326Z,1014.13
2019-05-13T09:55:52.119Z,1014.21
2019-05-13T09:56:51.877Z,1014.13
2019-05-13T09:57:52.512Z,1014.13
2019-05-13T09:59:11.914Z,1014.15
2019-05-13T09:59:52.367Z,1014.12
2019-05-13T10:01:51.894Z,1014.09
2019-05-13T10:02:51.631Z,1014.12
2019-05-13T10:03:54.934Z,1014.09
2019-05-13T10:05:11.795Z,1014.08
2019-05-13T10:05:51.852Z,1014.08
2019-05-13T10:06:50.516Z,1014.11
2019-05-13T10:07:50.508Z,1014.08
2019-05-13T10:08:52.714Z,1014.10
2019-05-13T10:09:52.092Z,1014.13
2019-05-13T10:11:12.379Z,1014.13
2019-05-13T10:11:51.950Z,1014.16
2019-05-13T10:13:07.368Z,1014.09
2019-05-13T10:13:51.561Z,1014.04
2019-05-13T10:14:50.423Z,1014.05
2019-05-13T10:15:50.416Z,1014.07
2019-05-13T10:17:13.174Z,1013.99
2019-05-13T10:17:52.643Z,1013.99
2019-05-13T10:18:52.469Z,1014.05
2019-05-13T10:19:52.082Z,1014.07
2019-05-13T10:20:52.403Z,1014.03
2019-05-13T10:21:52.448Z,1014.05
2019-05-13T10:23:12.592Z,1014.01
2019-05-13T10:23:50.333Z,1014.01
2019-05-13T10:24:51.389Z,1014.04
2019-05-13T10:25:52.147Z,1014.06
2019-05-13T10:26:51.473Z,1014.02
2019-05-13T10:27:50.295Z,1014.00
2019-05-13T10:29:11.983Z,1014.02
2019-05-13T10:29:51.711Z,1013.96
2019-05-13T10:30:53.043Z,1013.99
2019-05-13T10:31:51.328Z,1013.95
2019-05-13T10:32:52.618Z,1013.96
2019-05-13T10:33:51.294Z,1013.97
2019-05-13T10:35:11.244Z,1014.02
2019-05-13T10:35:52.502Z,1013.96
2019-05-13T10:36:51.418Z,1014.00
2019-05-13T10:37:52.264Z,1014.02
2019-05-13T10:38:52.151Z,1013.93
2019-05-13T10:39:51.722Z,1013.97
2019-05-13T10:41:11.931Z,1013.95
2019-05-13T10:41:52.299Z,1013.95
2019-05-13T10:42:52.424Z,1014.01
2019-05-13T10:43:52.022Z,1013.99
2019-05-13T10:44:52.359Z,1013.97
2019-05-13T10:45:52.232Z,1014.00
2019-05-13T10:47:12.093Z,1013.96
2019-05-13T10:47:51.901Z,1013.96
2019-05-13T10:48:52.691Z,1013.98
2019-05-13T10:49:52.416Z,1013.97
2019-05-13T10:50:52.934Z,1013.92
2019-05-13T10:51:52.587Z,1013.94
2019-05-13T10:53:12.260Z,1013.95
2019-05-13T10:53:52.474Z,1013.89
2019-05-13T10:54:52.350Z,1013.88
2019-05-13T10:55:52.159Z,1013.87
2019-05-13T10:56:53.129Z,1013.86
2019-05-13T10:57:51.346Z,1013.87
2019-05-13T10:59:12.631Z,1013.85
2019-05-13T10:59:51.964Z,1013.82
2019-05-13T11:00:51.662Z,1013.82
2019-05-13T11:01:50.081Z,1013.84
2019-05-13T11:02:50.063Z,1013.81
2019-05-13T11:03:52.427Z,1013.80
2019-05-13T11:05:12.315Z,1013.85
2019-05-13T11:05:52.488Z,1013.78
2019-05-13T11:06:52.488Z,1013.80
2019-05-13T11:07:51.743Z,1013.78
2019-05-13T11:08:52.803Z,1013.74
2019-05-13T11:09:52.661Z,1013.77
2019-05-13T11:11:13.058Z,1013.75
2019-05-13T11:11:52.845Z,1013.77
2019-05-13T11:12:52.065Z,1013.75
2019-05-13T11:13:58.155Z,1013.72
2019-05-13T11:14:51.481Z,1013.72
2019-05-13T11:15:53.227Z,1013.71
2019-05-13T11:17:13.174Z,1013.74
2019-05-13T11:17:51.933Z,1013.65
2019-05-13T11:18:51.889Z,1013.70
2019-05-13T11:19:49.994Z,1013.70
2019-05-13T11:20:49.986Z,1013.66
2019-05-13T11:21:50.923Z,1013.64
2019-05-13T11:23:12.481Z,1013.65
2019-05-13T11:23:51.822Z,1013.63
2019-05-13T11:24:51.809Z,1013.69
2019-05-13T11:25:52.237Z,1013.63
2019-05-13T11:26:52.257Z,1013.63
2019-05-13T11:27:52.315Z,1013.62
2019-05-13T11:29:12.179Z,1013.67
2019-05-13T11:29:52.304Z,1013.61
2019-05-13T11:30:52.096Z,1013.59
2019-05-13T11:31:52.410Z,1013.58
2019-05-13T11:32:51.607Z,1013.58
2019-05-13T11:33:52.011Z,1013.56
2019-05-13T11:35:12.665Z,1013.58
2019-05-13T11:35:52.382Z,1013.55
2019-05-13T11:36:53.105Z,1013.54
2019-05-13T11:37:52.155Z,1013.57
2019-05-13T11:38:53.097Z,1013.57
2019-05-13T11:39:51.694Z,1013.70
2019-05-13T11:41:11.850Z,1013.59
2019-05-13T11:41:49.931Z,1013.60
2019-05-13T11:42:52.178Z,1013.59
2019-05-13T11:44:09.232Z,1013.51
2019-05-13T11:44:52.741Z,1013.59
2019-05-13T11:45:50.872Z,1013.57
2019-05-13T11:47:12.742Z,1013.52
2019-05-13T11:47:51.982Z,1013.58
2019-05-13T11:48:51.933Z,1013.61
2019-05-13T11:49:52.214Z,1013.57
2019-05-13T11:50:53.222Z,1013.54
2019-05-13T11:51:51.890Z,1013.50
2019-05-13T11:53:31.646Z,1013.57
2019-05-13T11:53:50.569Z,1013.56
2019-05-13T11:54:53.175Z,1013.48
2019-05-13T11:55:52.315Z,1013.48
2019-05-13T11:57:00.968Z,1013.45
2019-05-13T11:57:52.452Z,1013.44
2019-05-13T11:59:14.080Z,1013.50
2019-05-13T11:59:52.672Z,1013.49
2019-05-13T12:00:53.101Z,1013.50
2019-05-13T12:01:53.503Z,1013.50
2019-05-13T12:02:54.461Z,1013.50
2019-05-13T12:03:52.812Z,1013.49
2019-05-13T12:05:10.900Z,1013.46
2019-05-13T12:05:53.432Z,1013.42
2019-05-13T12:06:54.288Z,1013.41